San Francisco, CA

7:50 PM PDT on August 27, 2014 (GMT -0700)
SOMA - Near Van Ness | Change Station
CLOSE
Current Station
Personal Weather Station
Location: San Francisco, CA
Elevation: 49 ft
Nearby Weather Stations

Elev 49 ft 37.77 °N, 122.42 °W | Updated 22 seconds ago

Partly Cloudy
Partly Cloudy
63.4 °F
Feels Like 63.4 °F
N
4.0
Wind Variable Wind from SW
Gusts 0.0 mph

Today
High -- | Low -- °F
--% Chance of Precip.
Yesterday
High -- | Low -- °F
Precip. -- in
6:35 AM 7:46 PM
Waxing Crescent, 6% visible
Pressure 30.00 in
Visibility 10.0 miles
Clouds Few 800 ft
Dew Point 59 °F
Humidity 85%
Rainfall 0.00 in
Snow Depth Not available.
UV 0 out of 12
Pollen 7.00 out of 12
PM2.5 Good
Flu Activity Not available.
METAR KSFO 280156Z 29018KT 10SM FEW008 18/14 A3000 RMK AO2 SLP159 T01780144

More Conditions Fewer Conditions

Pressure 30.00 in
Visibility 10.0 miles
Clouds Few 800 ft
Dew Point 59 °F
Humidity 85%
Rainfall 0.00 in
Snow Depth Not available.
UV 0 out of 12
Pollen 7.00 out of 12
PM2.5 Good
Flu Activity Not available.
METAR KSFO 280156Z 29018KT 10SM FEW008 18/14 A3000 RMK AO2 SLP159 T01780144

More Conditions Fewer Conditions

10-Day Weather Forecast

Almanac

Astronomy

Aug. 27, 2014 Rise Set
Actual Time 6:35 AM PDT 7:46 PM PDT
Civil Twilight 6:08 AM PDT 8:13 PM PDT
Nautical Twilight 5:36 AM PDT 8:45 PM PDT
Astronomical Twilight 5:02 AM PDT 9:18 PM PDT
Moon 8:33 AM PDT (8/27) 8:44 PM PDT (8/27)
Length of Visible Light 14h 04m
Length of Day
13h 10m
Tomorrow will be 2m 17s shorter.
Waxing Crescent, 6% of the Moon is Illuminated
Today
Waxing Crescent
Sep 2
First Quarter
Sep 8
Full
Sep 15
Last Quarter
Sep 24
New

Today's Extremes

State Highs State Lows

Community

WunderPhotos

Upload Photos

1,747,884 photos uploaded!

Nearby

Air Quality

  Air Quality AQ Index Pollutant
Yesterday Good
OZONE
Yesterday Good
PM2.5
Current Good
PM2.5
Wednesday Good
PM2.5
Thursday Good
PM2.5
Friday Good
PM2.5
Saturday Good
PM2.5
Sunday Good
OZONE
Monday Good
OZONE

Snow Depth

Station Depth Elevation
Rubicon #2 0 in 7500 ft
Hagan's Meadow 0 in 8000 ft
CSS Lab 0 in 6900 ft
Leavitt Meadows 1 in 7200 ft
Summit Meadow 0 in 9122 ft

Earthquake Activity

City Distance Mag. Time & Date
Napa, California 32 miles 2.6 11:57 AM PDT
2014-08-27
The Geysers, California 75 miles 2.6 7:42 AM PDT
2014-08-27
Soledad, California 111 miles 2.6 12:15 PM PDT
2014-08-26
Napa, California 32 miles 2.5 10:56 AM PDT
2014-08-26
Minimum magnitude displayed is 2.5.

Coastal Water Temperatures

Place Temperature
No Stations Reporting

Nearby Weather Stations